Sugar Bowl, California Weather observations

Data are for observation ending at time listed.
 Day   Time    Ave.   Ave.  Ave.  Vector   Max.   Stn.    Total    Solar   Ave.   Snow 
  of    of     Air    Rel.  Wind   Wind    Wind   Baro.  Precip.   Rad.    Soil   Depth
Year   Day     Temp.  Hum.  Speed  Dir.    Gust   Pres.                    Temp.       
2014   (PST)    F      %     mph   deg.    mph     mb.     in.     W/m2     F      in. 
---------------------------------------------------------------------------------------  
 211    0:10   58.6    51    0.9   140      3.7   795.1    0.00       0    999.0    3.5
 211    0:20   59.2    50    0.1   198      2.0   795.1    0.00       0    999.0    2.9
 211    0:30   59.0    51    0.5   148      2.0   795.0    0.00       0    999.0    2.5
 211    0:40   59.3    49    0.2   197      4.7   794.9    0.00       0    999.0    2.9
 211    0:50   60.1    48    0.7   220      2.6   794.8    0.00       0    999.0    3.6
 211    1:00   60.2    48    0.3   225      3.4   794.9    0.00       0    999.0    2.6
 211    1:10   59.7    49    0.1   284      1.7   794.9    0.00       0    999.0    4.0
 211    1:20   59.4    50    0.1   220      1.6   794.9    0.00       0    999.0    2.3
 211    1:30   59.5    50    0.3   285      1.5   794.8    0.00       0    999.0    4.6
 211    1:40   60.1    50    0.7   290      2.7   794.8    0.00       0    999.0    3.2
 211    1:50   60.4    49    0.2   224      1.8   794.8    0.00       0    999.0    2.4
 211    2:00   61.0    48    0.7   258      2.1   794.8    0.00       0    999.0    4.1
 211    2:10   60.2    53    0.2   308      1.9   794.8    0.00       0    999.0    3.2
 211    2:20   58.7    55    0.8   159      3.1   794.9    0.00       0    999.0    4.3
 211    2:30   58.0    56    0.6   209      3.6   795.0    0.00       0    999.0    3.1
 211    2:40   57.5    56    0.5   154      2.6   794.9    0.00       0    999.0    4.9
 211    2:50   57.1    56    0.3   176      1.8   794.8    0.00       0    999.0    4.8
 211    3:00   56.4    58    0.1    62      0.9   794.7    0.00       0    999.0    4.8
 211    3:10   55.6    60    1.1    85      5.6   794.7    0.00       0    999.0    4.9
 211    3:20   55.2    61    0.7   191      3.1   794.7    0.00       0    999.0    6.8
 211    3:30   55.7    58    0.1   197      2.1   794.7    0.00       0    999.0    6.8
 211    3:40   55.7    58    0.1   170      2.3   794.6    0.00       0    999.0    4.5
 211    3:50   55.7    57    0.9   193      5.5   794.6    0.00       0    999.0    4.5
 211    4:00   55.8    57    0.6   292      2.2   794.5    0.00       0    999.0   10.0
 211    4:10   55.7    57    0.8   297      2.6   794.5    0.00       0    999.0    9.9
 211    4:20   55.7    56    0.8   289      3.4   794.5    0.00       0    999.0    7.4
 211    4:30   55.5    57    0.4   300      2.5   794.5    0.00       0    999.0    8.1
 211    4:40   55.3    57    0.5   282      3.2   794.5    0.00       0    999.0    6.9
 211    4:50   56.0    55    1.0   300      3.9   794.5    0.00       0    999.0    6.4
 211    5:00   55.9    55    1.4   282      3.7   794.5    0.00       2    999.0    4.7
 211    5:10   56.3    55    1.0   290      3.2   794.6    0.00       4    999.0    5.7
 211    5:20   56.2    55    0.5   281      2.0   794.7    0.00       7    999.0    6.3
 211    5:30   56.6    55    0.8   269      3.5   794.8    0.00      10    999.0    8.1
 211    5:40   56.3    56    0.7     6      3.5   794.8    0.00      15    999.0    8.3
 211    5:50   57.0    56    0.5   303      2.0   794.8    0.00      89    999.0    8.2
 211    6:00   58.8    53    1.5    63      8.6   794.8    0.00     136    999.0    6.7
 211    6:10   61.2    50    0.8    55      5.0   794.9    0.00     152    999.0    3.8
 211    6:20   61.9    49    1.1    66      5.1   794.9    0.00     177    999.0    4.0
 211    6:30   63.4    46    1.8    77      6.9   795.0    0.00     219    999.0    3.0
 211    6:40   64.7    43    2.5    77      8.6   795.0    0.00     253    999.0    2.6
 211    6:50   65.9    40    4.1    82      9.6   795.0    0.00     286    999.0    3.0
 211    7:00   67.0    38    4.2    81     12.7   795.0    0.00     322    999.0    4.6
 211    7:10   67.9    38    5.3    84     16.7   795.0    0.00     391    999.0    3.3
 211    7:20   69.0    37    5.5    89     13.1   794.9    0.00     460    999.0    1.7
 211    7:30   69.0    37    5.2    96     14.6   794.9    0.00     228    999.0    1.3
 211    7:40   68.2    37    4.9    89     18.1   795.0    0.00     190    999.0    2.3
 211    7:50   68.7    37    5.6    92     17.5   795.1    0.00     387    999.0    0.5
 211    8:00   69.8    36    4.4    79     13.7   795.0    0.00     444    999.0    2.6
 211    8:10   70.0    36    3.6    86     14.1   795.1    0.00     548    999.0    3.6
 211    8:20   70.5    36    4.1   102      9.9   795.1    0.00     460    999.0    3.4
 211    8:30   71.0    34    5.4    79     17.5   795.0    0.00     573    999.0    1.4
 211    8:40   71.2    34    6.0    82     15.3   795.0    0.00     244    999.0    2.9
 211    8:50   71.2    32    4.9    90     11.7   795.1    0.00     217    999.0    1.7
 211    9:00   71.4    32    4.6    95     14.7   795.1    0.00     149    999.0    1.7
 211    9:10   72.1    32    4.0    83     18.6   795.1    0.00     159    999.0    1.5
 211    9:20   73.5    34    2.2    89      9.3   795.0    0.00     147    999.0    1.8
 211    9:30   73.1    31    5.9    96     17.5   795.1    0.00     149    999.0    2.7
 211    9:40   72.9    32    4.1    86     21.8   795.0    0.00     202    999.0    1.7
 211    9:50   73.6    32    5.6    91     22.8   795.1    0.00     247    999.0    1.8
 211   10:00   73.1    31    2.8    94     14.5   795.1    0.00     190    999.0    3.2
 211   10:10   74.3    30    2.1   282      7.2   795.0    0.00     188    999.0    4.6
 211   10:20   74.4    29    3.3    87     18.0   795.0    0.00     174    999.0    3.5
 211   10:30   74.3    27    3.6    69     17.1   795.0    0.00     153    999.0    3.5
 211   10:40   75.3    27    3.5    90     11.5   794.9    0.00     155    999.0    3.6
 211   10:50   75.7    27    2.5    72     11.7   794.8    0.00     218    999.0    3.7
 211   11:00   74.7    28    5.8    95     18.0   794.7    0.00     171    999.0    2.3
 211   11:10   73.4    28    3.0   268     11.5   794.7    0.00     155    999.0    5.4
 211   11:20   73.4    29    2.0   309     11.5   794.7    0.00     325    999.0    6.0
 211   11:30   73.8    30    2.2   326      9.9   794.7    0.00     253    999.0    6.5
 211   11:40   74.0    30    3.2   293     13.4   794.7    0.00     215    999.0    3.3
 211   11:50   72.6    32    2.4   116     10.1   794.7    0.00     144    999.0    2.5
 211   12:00   71.7    34    5.9    89     24.5   794.7    0.00     496    999.0    3.7
 211   12:10   71.9    36    6.8    91     21.2   794.7    0.00    1061    999.0    4.3
 211   12:20   73.8    33    2.9   129     17.2   794.7    0.00     814    999.0    2.2
 211   12:30   74.5    32    3.2   277     15.7   794.6    0.00     300    999.0    2.6
 211   12:40   75.7    31    3.5   300     11.2   794.6    0.00     276    999.0    3.2
 211   12:50   74.5    32    2.6    65     13.1   794.5    0.00     242    999.0    1.5
 211   13:00   74.5    32    3.0    37      8.2   794.6    0.00     253    999.0    0.0
 211   13:10   71.3    37    1.7    51      8.0   794.9    0.00     147    999.0    5.0
 211   13:20   69.1    39    1.4    76      6.0   795.0    0.00      99    999.0    4.3
 211   13:30   68.4    40    3.1    87     11.5   795.0    0.00      93    999.0    4.2
 211   13:40   68.0    40    4.1    94     11.2   795.1    0.00      77    999.0    2.7
 211   13:50   67.2    44    5.5    88     16.4   795.2    0.00      46    999.0    5.0
 211   14:00   63.7    57    7.6    98     18.9   795.4    0.01      51    999.0    3.1
 211   14:10   61.0    65    6.8    95     18.0   795.5    0.00      45    999.0    4.9
 211   14:20   60.0    70    6.2    94     17.0   795.6    0.01      27    999.0    4.0
 211   14:30   59.4    70    5.4    93     16.7   795.7    0.01      28    999.0    4.6
 211   14:40   58.0    75    3.2    91     14.5   795.8    0.01      21    999.0    2.3
 211   14:50   57.0    80    1.2   158      4.7   795.9    0.02      21    999.0    4.3
 211   15:00   56.8    82    1.4    96      7.8   796.0    0.03      24    999.0    3.9
 211   15:10   55.7    87    3.5    91     13.0   796.1    0.04      45    999.0    2.3
 211   15:20   55.7    87    2.9    87      9.8   795.9    0.00      62    999.0    2.3
 211   15:30   56.5    80    5.2    99     15.6   796.0    0.00      35    999.0    3.1
 211   15:40   56.4    81    2.2    86      9.3   796.2    0.01      47    999.0    3.4
 211   15:50   56.0    84    3.3    96     12.8   796.2    0.00     139    999.0    0.8
 211   16:00   56.5    86    3.5    75     12.3   796.1    0.00     201    999.0    0.5
 211   16:10   58.1    77    5.2    84     16.7   795.8    0.00     284    999.0    1.5
 211   16:20   59.5    74    4.9    84     18.2   795.7    0.00     304    999.0    2.5
 211   16:30   60.6    70    6.1    86     15.2   795.7    0.00     279    999.0    3.1
 211   16:40   61.8    66    6.5    86     18.6   795.6    0.00     269    999.0    2.4
 211   16:50   62.3    64    4.9    87     14.0   795.6    0.00     235    999.0    4.8
 211   17:00   62.8    60    7.2    93     20.1   795.5    0.00     402    999.0    4.5
 211   17:10   63.6    58    6.3    91     18.3   795.4    0.00     299    999.0    4.1
 211   17:20   64.1    56    6.6    93     17.3   795.3    0.00     176    999.0    1.4
 211   17:30   64.5    55    7.1    97     17.8   795.3    0.00     247    999.0    4.2
 211   17:40   65.0    50    6.3    88     17.3   795.3    0.00     265    999.0    2.2
 211   17:50   65.4    49    5.1    91     21.5   795.2    0.00     236    999.0    4.8
 211   18:00   65.7    50    1.9    73     10.2   795.2    0.00     128    999.0    6.5
 211   18:10   64.8    58    1.2   334      4.2   795.2    0.00     125    999.0    5.5
 211   18:20   64.1    57    1.5   191      6.6   795.2    0.00      82    999.0    5.8
 211   18:30   64.1    58    1.4    73      5.8   795.1    0.00      76    999.0    6.6
 211   18:40   64.0    60    0.6    99      3.4   795.0    0.00      56    999.0    6.5
 211   18:50   63.5    64    0.5   273      1.8   795.0    0.00      34    999.0    5.7
 211   19:00   62.7    70    0.1   229      1.2   795.0    0.00      18    999.0    6.3
 211   19:10   61.3    72    0.3   180      2.6   795.1    0.00       8    999.0    4.9
 211   19:20   60.2    71    0.3   199      2.9   795.0    0.00       2    999.0    6.4
 211   19:30   59.4    73    0.1   186      0.9   795.1    0.00       1    999.0    5.6
 211   19:40   58.5    75    0.0     0      0.0   795.1    0.00       0    999.0    5.6
 211   19:50   57.7    78    0.0   169      0.1   795.2    0.00       0    999.0    2.9
 211   20:00   57.1    75    0.4   179      2.5   795.2    0.00       0    999.0    3.9
 211   20:10   56.3    78    0.9    84      4.6   795.3    0.00       0    999.0    3.8
 211   20:20   55.8    77    0.2   281      1.8   795.3    0.00       0    999.0    0.7
 211   20:30   55.5    78    1.2   110      4.2   795.3    0.00       0    999.0    3.2
 211   20:40   55.1    78    0.7   184      6.2   795.2    0.00       0    999.0    2.0
 211   20:50   54.8    79    0.7   163      3.6   795.2    0.00       0    999.0    1.4
 211   21:00   55.1    82    1.2   195      4.7   795.3    0.00       0    999.0   -0.2
 211   21:10   56.2    79    0.7   109      4.3   795.3    0.00       0    999.0   -0.1
 211   21:20   54.8    80    1.3   162      5.2   795.4    0.00       0    999.0    1.0
 211   21:30   55.3    84    1.0   195      5.4   795.3    0.00       0    999.0   -0.7
 211   21:40   54.8    80    1.2   116      6.5   795.3    0.00       0    999.0    1.4
 211   21:50   54.4    82    1.5   194      5.4   795.3    0.00       0    999.0    2.0
 211   22:00   54.9    78    1.6    90      7.5   795.1    0.00       0    999.0    1.6
 211   22:10   53.9    78    0.6   121      3.3   795.1    0.00       0    999.0    2.0
 211   22:20   54.4    78    0.1   210      1.8   795.1    0.00       0    999.0    2.1
 211   22:30   54.4    76    0.8   171      4.4   795.0    0.00       0    999.0    1.9
 211   22:40   53.7    77    0.3    85      1.9   795.0    0.00       0    999.0    3.0
 211   22:50   53.0    79    0.7   142      4.5   795.0    0.00       0    999.0    2.3
 211   23:00   53.2    77    0.9   177      3.6   795.0    0.00       0    999.0    0.9
 211   23:10   54.7    76    0.5   174      5.0   795.1    0.00       0    999.0    0.0
 211   23:20   54.2    74    1.5    94      5.5   795.1    0.00       0    999.0    1.0
 211   23:30   53.4    76    0.7   182      3.1   795.0    0.00       0    999.0    2.4
 211   23:40   54.1    74    0.1   188      0.9   795.0    0.00       0    999.0    1.1
 211   23:50   55.0    74    1.0   185      2.9   794.9    0.00       0    999.0    1.3
 212    0:00   55.0    73    0.6   204      3.9   794.9    0.00       0    999.0    1.1

Return to Sugar Bowl graphs page.


Western Regional Climate Center,wrcc@dri.edu